Strona główna
METAR-TAF:

METAR-TAF

Lotnisko :

Port lotniczy Sztokholm-Arlanda

Sztokholm-Arlanda, Szwecja

Szerokość geograficzna: 59-39N, Długość geograficzna: 017-57E, wysokość: 38 m

Aktualna obserwacja pogody

Raport powstał 26 minut temu, godzina 07:20 UTC
Wiatr 10 kt od północno-północny zachód
Temperatura 11°C
Wilgotność 62%
Ciśnienie 1029 hPa
Widzialność 10 km lub więcej
Brak chmur poniżej 1500 m i brak chmur cumulonimbus

METAR: ESSA 280720Z 33010KT CAVOK 11/04 Q1029 NOSIG

czas: 09:46 (07:46 UTC)

Prognoza

Raport powstał 2 godziny i 16 minut temu, godzina 05:30 UTC
Prognoza ważna od 28 godzina 06 UTC do 29 godzina 06 UTC
Wiatr 8 kt od północno-północny zachód
Widzialność 10 km lub więcej
Brak chmur poniżej 1500 m i brak chmur cumulonimbus

TAF: ESSA 280530Z 2806/2906 34008KT CAVOK

Obserwacja i prognoza pogody dla ponad 4000 lotnisk (raport METAR i TAF).

Dostępne stacje oznaczono żółtymi i czerwonymi punktami na mapie.

Najedź kursorem aby zobaczyć nazwę stacji.

Kliknij aby zobaczyć obserwacje i prognozy pogody.

Aby zmienić mapę: kliknij na zielony przycisk z czarnym krzyżykiem, aby powiększyć; na zielony przycisk z myślnikiem, aby pomniejszyć; na zielone strzałki, aby przejść do map sąsiednich.


METAR-TAF: